createdAt,value
2022-10-28T00:02:21.355Z,15.12
2022-10-28T00:04:47.969Z,15.14
2022-10-28T00:07:14.565Z,15.38
2022-10-28T00:09:41.224Z,15.31
2022-10-28T00:12:07.823Z,15.34
2022-10-28T00:14:34.470Z,15.40
2022-10-28T00:17:01.080Z,15.29
2022-10-28T00:19:27.673Z,15.32
2022-10-28T00:21:54.289Z,15.45
2022-10-28T00:24:20.908Z,15.50
2022-10-28T00:26:47.518Z,15.53
2022-10-28T00:29:14.124Z,15.55
2022-10-28T00:31:40.811Z,15.35
2022-10-28T00:34:07.410Z,15.34
2022-10-28T00:36:34.039Z,15.24
2022-10-28T00:39:00.634Z,15.04
2022-10-28T00:41:27.237Z,15.11
2022-10-28T00:43:53.846Z,15.17
2022-10-28T00:46:20.476Z,15.05
2022-10-28T00:48:47.090Z,15.03
2022-10-28T00:51:13.737Z,15.07
2022-10-28T00:53:40.387Z,14.66
2022-10-28T00:56:06.978Z,15.03
2022-10-28T00:58:33.597Z,14.68
2022-10-28T01:01:00.242Z,14.52
2022-10-28T01:03:26.862Z,14.61
2022-10-28T01:05:53.519Z,14.52
2022-10-28T01:08:20.124Z,14.41
2022-10-28T01:10:46.767Z,14.60
2022-10-28T01:13:13.359Z,14.72
2022-10-28T01:15:39.947Z,14.92
2022-10-28T01:18:06.559Z,14.71
2022-10-28T01:20:37.895Z,14.59
2022-10-28T01:23:07.627Z,14.86
2022-10-28T01:25:34.237Z,15.03
2022-10-28T01:28:00.855Z,15.04
2022-10-28T01:30:27.468Z,15.10
2022-10-28T01:32:54.396Z,15.00
2022-10-28T01:35:21.263Z,14.85
2022-10-28T01:37:47.884Z,14.96
2022-10-28T01:40:14.526Z,14.81
2022-10-28T01:42:41.160Z,14.94
2022-10-28T01:45:07.775Z,14.83
2022-10-28T01:47:34.396Z,14.71
2022-10-28T01:50:00.994Z,14.31
2022-10-28T01:52:27.666Z,14.29
2022-10-28T01:54:54.253Z,14.03
2022-10-28T01:57:20.865Z,14.13
2022-10-28T01:59:47.467Z,14.17
2022-10-28T02:02:14.097Z,14.18
2022-10-28T02:04:40.741Z,14.08
2022-10-28T02:07:07.344Z,14.32
2022-10-28T02:09:33.952Z,14.30
2022-10-28T02:12:00.751Z,14.38
2022-10-28T02:14:27.370Z,14.07
2022-10-28T02:16:53.960Z,13.87
2022-10-28T02:19:20.550Z,14.07
2022-10-28T02:21:47.173Z,14.22
2022-10-28T02:24:13.803Z,14.20
2022-10-28T02:26:40.417Z,14.44
2022-10-28T02:29:07.031Z,14.18
2022-10-28T02:31:33.701Z,14.10
2022-10-28T02:34:00.302Z,13.99
2022-10-28T02:36:26.949Z,14.15
2022-10-28T02:38:53.563Z,14.34
2022-10-28T02:41:20.158Z,14.67
2022-10-28T02:43:46.796Z,14.60
2022-10-28T02:46:13.417Z,14.77
2022-10-28T02:48:40.070Z,14.67
2022-10-28T02:51:06.700Z,14.45
2022-10-28T02:53:33.331Z,14.55
2022-10-28T02:55:59.947Z,14.80
2022-10-28T02:58:26.567Z,14.44
2022-10-28T03:00:53.240Z,14.41
2022-10-28T03:03:19.880Z,14.56
2022-10-28T03:05:46.630Z,14.50
2022-10-28T03:08:13.243Z,14.44
2022-10-28T03:10:39.828Z,13.79
2022-10-28T03:13:06.448Z,13.70
2022-10-28T03:15:33.028Z,14.09
2022-10-28T03:17:59.635Z,14.06
2022-10-28T03:20:26.251Z,13.87
2022-10-28T03:22:53.123Z,13.87
2022-10-28T03:25:19.840Z,13.90
2022-10-28T03:27:46.474Z,13.77
2022-10-28T03:30:13.072Z,13.71
2022-10-28T03:32:39.687Z,13.89
2022-10-28T03:35:06.273Z,14.03
2022-10-28T03:37:33.015Z,14.15
2022-10-28T03:39:59.598Z,13.77
2022-10-28T03:42:26.217Z,13.93
2022-10-28T03:44:52.816Z,13.63
2022-10-28T03:47:19.405Z,13.72
2022-10-28T03:49:46.015Z,13.57
2022-10-28T03:52:12.636Z,13.86
2022-10-28T03:54:39.243Z,13.78
2022-10-28T03:57:06.045Z,13.85
2022-10-28T03:59:32.665Z,13.82
2022-10-28T04:01:59.580Z,13.82
2022-10-28T04:04:29.925Z,13.91
2022-10-28T04:06:59.620Z,14.08
2022-10-28T04:09:26.216Z,14.13
2022-10-28T04:11:55.226Z,13.97
2022-10-28T04:14:30.576Z,14.00
2022-10-28T04:17:00.824Z,14.15
2022-10-28T04:19:29.512Z,14.13
2022-10-28T04:21:56.126Z,13.96
2022-10-28T04:24:25.909Z,13.91
2022-10-28T04:26:53.546Z,13.96
2022-10-28T04:29:20.177Z,13.63
2022-10-28T04:31:48.758Z,13.69
2022-10-28T04:34:18.143Z,13.90
2022-10-28T04:36:44.738Z,13.62
2022-10-28T04:39:11.346Z,13.59
2022-10-28T04:41:37.958Z,13.55
2022-10-28T04:44:04.581Z,13.61
2022-10-28T04:46:31.172Z,13.69
2022-10-28T04:48:57.775Z,13.65
2022-10-28T04:51:24.386Z,13.59
2022-10-28T04:53:51.004Z,13.72
2022-10-28T04:56:17.615Z,13.94
2022-10-28T04:58:44.213Z,13.61
2022-10-28T05:01:10.920Z,13.41
2022-10-28T05:03:37.649Z,13.49
2022-10-28T05:06:04.332Z,13.63
2022-10-28T05:08:30.976Z,13.58
2022-10-28T05:10:57.573Z,13.64
2022-10-28T05:13:24.196Z,13.74
2022-10-28T05:15:50.801Z,13.35
2022-10-28T05:18:17.471Z,13.31
2022-10-28T05:20:44.077Z,13.33
2022-10-28T05:23:10.688Z,13.46
2022-10-28T05:25:37.314Z,13.45
2022-10-28T05:28:03.914Z,13.47
2022-10-28T05:30:30.515Z,13.66
2022-10-28T05:32:57.534Z,13.60
2022-10-28T05:35:24.540Z,13.52
2022-10-28T05:37:51.153Z,13.43
2022-10-28T05:40:17.887Z,13.50
2022-10-28T05:42:44.532Z,13.47
2022-10-28T05:45:11.150Z,13.31
2022-10-28T05:47:40.011Z,13.78
2022-10-28T05:50:06.822Z,13.82
2022-10-28T05:52:33.490Z,13.48
2022-10-28T05:55:00.143Z,13.47
2022-10-28T05:57:26.737Z,13.55
2022-10-28T05:59:53.358Z,13.54
2022-10-28T06:02:19.953Z,13.30
2022-10-28T06:04:46.562Z,13.48
2022-10-28T06:07:13.205Z,13.55
2022-10-28T06:09:39.984Z,13.47
2022-10-28T06:12:05.062Z,13.73
2022-10-28T06:14:31.644Z,13.79
2022-10-28T06:16:58.262Z,13.98
2022-10-28T06:19:24.875Z,14.13
2022-10-28T06:21:51.471Z,14.31
2022-10-28T06:24:18.095Z,14.21
2022-10-28T06:26:44.687Z,14.16
2022-10-28T06:29:11.361Z,14.34
2022-10-28T06:31:37.947Z,14.26
2022-10-28T06:34:04.583Z,14.13
2022-10-28T06:36:31.203Z,14.34
2022-10-28T06:38:57.861Z,14.65
2022-10-28T06:41:24.487Z,14.59
2022-10-28T06:43:51.111Z,14.61
2022-10-28T06:46:17.747Z,14.89
2022-10-28T06:48:45.886Z,15.01
2022-10-28T06:51:12.476Z,14.96
2022-10-28T06:53:39.077Z,15.15
2022-10-28T06:56:05.761Z,15.45
2022-10-28T06:58:32.375Z,15.34
2022-10-28T07:00:58.985Z,15.48
2022-10-28T07:03:25.619Z,15.74
2022-10-28T07:05:52.254Z,15.98
2022-10-28T07:08:18.903Z,15.89
2022-10-28T07:10:45.525Z,16.12
2022-10-28T07:13:12.135Z,16.32
2022-10-28T07:15:38.755Z,16.40
2022-10-28T07:18:05.361Z,16.43
2022-10-28T07:20:32.033Z,16.57
2022-10-28T07:22:58.691Z,16.78
2022-10-28T07:25:25.287Z,16.88
2022-10-28T07:27:52.126Z,16.69
2022-10-28T07:30:19.033Z,16.64
2022-10-28T07:32:45.633Z,16.37
2022-10-28T07:35:12.248Z,16.70
2022-10-28T07:37:38.846Z,17.16
2022-10-28T07:40:05.514Z,17.52
2022-10-28T07:42:32.106Z,17.73
2022-10-28T07:44:58.705Z,17.82
2022-10-28T07:47:25.782Z,18.03
2022-10-28T07:49:52.365Z,18.26
2022-10-28T07:52:19.014Z,18.23
2022-10-28T07:54:45.625Z,18.29
2022-10-28T07:57:12.582Z,18.41
2022-10-28T07:59:39.191Z,18.36
2022-10-28T08:02:05.979Z,18.55
2022-10-28T08:04:32.597Z,18.72
2022-10-28T08:06:59.196Z,19.08
2022-10-28T08:09:25.852Z,19.34
2022-10-28T08:11:52.661Z,19.41
2022-10-28T08:14:19.282Z,19.45
2022-10-28T08:16:45.892Z,19.65
2022-10-28T08:19:12.539Z,19.72
2022-10-28T08:21:39.145Z,19.95
2022-10-28T08:24:05.759Z,20.10
2022-10-28T08:26:32.818Z,20.21
2022-10-28T08:28:59.405Z,20.29
2022-10-28T08:31:26.071Z,20.15
2022-10-28T08:33:52.687Z,20.03
2022-10-28T08:36:20.111Z,20.16
2022-10-28T08:38:46.711Z,20.12
2022-10-28T08:41:13.341Z,20.55
2022-10-28T08:43:56.078Z,20.87
2022-10-28T08:46:23.162Z,20.69
2022-10-28T08:48:49.781Z,20.94
2022-10-28T08:51:16.412Z,21.33
2022-10-28T08:53:43.003Z,21.59
2022-10-28T08:56:09.654Z,21.53
2022-10-28T08:58:36.295Z,21.62
2022-10-28T09:01:02.982Z,21.54
2022-10-28T09:03:29.660Z,21.72
2022-10-28T09:05:56.252Z,21.76
2022-10-28T09:08:22.853Z,21.84
2022-10-28T09:10:49.700Z,21.92
2022-10-28T09:13:16.320Z,22.16
2022-10-28T09:15:42.938Z,22.16
2022-10-28T09:18:09.556Z,22.37
2022-10-28T09:20:36.472Z,22.39
2022-10-28T09:23:03.101Z,22.52
2022-10-28T09:25:29.723Z,22.59
2022-10-28T09:27:56.629Z,22.68
2022-10-28T09:30:23.566Z,22.84
2022-10-28T09:32:50.151Z,23.03
2022-10-28T09:35:16.823Z,23.03
2022-10-28T09:37:43.443Z,23.12
2022-10-28T09:40:10.035Z,23.26
2022-10-28T09:42:36.713Z,23.38
2022-10-28T09:45:03.382Z,23.45
2022-10-28T09:47:30.156Z,23.55
2022-10-28T09:49:56.742Z,23.52
2022-10-28T09:52:23.504Z,23.71
2022-10-28T09:54:50.121Z,23.86
2022-10-28T09:57:17.525Z,23.95
2022-10-28T09:59:44.355Z,23.99
2022-10-28T10:02:11.029Z,24.22
2022-10-28T10:04:37.651Z,24.35
2022-10-28T10:07:04.251Z,23.93
2022-10-28T10:09:30.864Z,24.11
2022-10-28T10:11:57.484Z,24.62
2022-10-28T10:14:24.079Z,24.63
2022-10-28T10:16:50.689Z,24.72
2022-10-28T10:19:17.316Z,24.80
2022-10-28T10:21:43.973Z,25.07
2022-10-28T10:24:10.622Z,25.35
2022-10-28T10:26:37.217Z,25.29
2022-10-28T10:29:03.853Z,25.33
2022-10-28T10:31:30.457Z,25.74
2022-10-28T10:33:57.116Z,25.86
2022-10-28T10:36:23.917Z,25.85
2022-10-28T10:38:50.552Z,25.41
2022-10-28T10:41:17.196Z,25.59
2022-10-28T10:43:43.781Z,25.71
2022-10-28T10:46:10.394Z,25.84
2022-10-28T10:48:37.014Z,25.39
2022-10-28T10:51:03.619Z,25.53
2022-10-28T10:53:30.240Z,25.84
2022-10-28T10:55:56.952Z,26.19
2022-10-28T10:58:23.565Z,26.16
2022-10-28T11:00:50.195Z,25.37
2022-10-28T11:03:16.787Z,25.68
2022-10-28T11:05:45.468Z,26.25
2022-10-28T11:08:12.136Z,25.54
2022-10-28T11:10:38.730Z,25.08
2022-10-28T11:13:05.338Z,25.32
2022-10-28T11:15:31.976Z,26.06
2022-10-28T11:17:58.589Z,25.43
2022-10-28T11:20:25.174Z,25.40
2022-10-28T11:22:52.038Z,26.32
2022-10-28T11:25:18.951Z,26.50
2022-10-28T11:27:47.514Z,25.52
2022-10-28T11:30:16.656Z,25.35
2022-10-28T11:32:54.543Z,26.08
2022-10-28T11:35:29.910Z,26.64
2022-10-28T11:37:56.543Z,26.66
2022-10-28T11:40:23.177Z,26.87
2022-10-28T11:42:49.768Z,26.52
2022-10-28T11:45:16.382Z,26.39
2022-10-28T11:47:43.012Z,26.41
2022-10-28T11:50:09.648Z,26.30
2022-10-28T11:52:38.118Z,26.25
2022-10-28T11:55:07.845Z,26.04
2022-10-28T11:57:34.491Z,25.23
2022-10-28T12:00:01.146Z,25.68
2022-10-28T12:02:27.988Z,25.46
2022-10-28T12:04:54.632Z,25.85
2022-10-28T12:07:21.227Z,26.92
2022-10-28T12:09:47.813Z,27.18
2022-10-28T12:12:14.497Z,26.85
2022-10-28T12:14:41.113Z,26.53
2022-10-28T12:17:07.726Z,26.82
2022-10-28T12:19:34.380Z,26.69
2022-10-28T12:22:01.017Z,26.35
2022-10-28T12:24:27.821Z,27.18
2022-10-28T12:26:54.534Z,27.54
2022-10-28T12:29:21.281Z,28.05
2022-10-28T12:31:47.911Z,28.40
2022-10-28T12:34:14.539Z,28.08
2022-10-28T12:36:41.711Z,27.15
2022-10-28T12:39:08.364Z,26.21
2022-10-28T12:41:35.041Z,26.75
2022-10-28T12:44:01.729Z,27.38
2022-10-28T12:46:28.374Z,27.80
2022-10-28T12:48:55.015Z,27.58
2022-10-28T12:51:21.615Z,27.93
2022-10-28T12:53:48.405Z,27.83
2022-10-28T12:56:15.069Z,27.99
2022-10-28T12:58:41.747Z,26.39
2022-10-28T13:01:08.459Z,26.88
2022-10-28T13:03:35.142Z,27.66
2022-10-28T13:06:01.825Z,28.26
2022-10-28T13:08:28.416Z,28.04
2022-10-28T13:10:55.054Z,27.90
2022-10-28T13:13:21.677Z,28.19
2022-10-28T13:15:48.333Z,28.37
2022-10-28T13:18:14.964Z,27.89
2022-10-28T13:20:41.625Z,27.05
2022-10-28T13:23:08.281Z,26.52
2022-10-28T13:25:34.878Z,26.52
2022-10-28T13:28:01.531Z,25.87
2022-10-28T13:30:28.180Z,25.56
2022-10-28T13:32:54.781Z,25.74
2022-10-28T13:35:21.407Z,26.51
2022-10-28T13:37:48.059Z,27.17
2022-10-28T13:40:14.667Z,27.61
2022-10-28T13:42:41.305Z,27.86
2022-10-28T13:45:07.906Z,27.84
2022-10-28T13:47:34.552Z,27.86
2022-10-28T13:50:01.169Z,27.12
2022-10-28T13:52:27.793Z,26.91
2022-10-28T13:54:54.461Z,26.93
2022-10-28T13:57:21.098Z,27.02
2022-10-28T13:59:47.755Z,27.23
2022-10-28T14:02:33.839Z,27.21
2022-10-28T14:05:01.023Z,25.98
2022-10-28T14:07:27.654Z,25.84
2022-10-28T14:09:54.293Z,26.35
2022-10-28T14:12:20.922Z,26.53
2022-10-28T14:14:47.571Z,26.97
2022-10-28T14:17:14.227Z,26.96
2022-10-28T14:19:40.897Z,27.02
2022-10-28T14:22:07.619Z,26.22
2022-10-28T14:24:34.316Z,25.79
2022-10-28T14:27:00.936Z,26.08
2022-10-28T14:29:27.531Z,26.42
2022-10-28T14:31:54.144Z,26.71
2022-10-28T14:34:20.760Z,26.86
2022-10-28T14:36:47.385Z,27.04
2022-10-28T14:39:13.996Z,26.79
2022-10-28T14:41:43.826Z,25.91
2022-10-28T14:44:10.454Z,26.27
2022-10-28T14:46:37.066Z,26.26
2022-10-28T14:49:03.662Z,26.32
2022-10-28T14:51:30.300Z,26.23
2022-10-28T14:53:56.893Z,26.39
2022-10-28T14:58:55.028Z,26.34
2022-10-28T15:01:21.776Z,26.20
2022-10-28T15:03:48.511Z,26.14
2022-10-28T15:06:15.119Z,26.15
2022-10-28T15:08:41.744Z,26.06
2022-10-28T15:11:08.353Z,25.95
2022-10-28T15:13:34.983Z,25.84
2022-10-28T15:16:04.598Z,25.78
2022-10-28T15:18:31.450Z,25.63
2022-10-28T15:20:58.074Z,25.45
2022-10-28T15:23:24.734Z,25.32
2022-10-28T15:25:51.378Z,25.06
2022-10-28T15:28:18.030Z,24.91
2022-10-28T15:30:46.618Z,24.77
2022-10-28T15:33:13.516Z,24.59
2022-10-28T15:35:40.123Z,24.45
2022-10-28T15:38:06.781Z,24.33
2022-10-28T15:40:33.386Z,24.18
2022-10-28T15:43:00.084Z,24.02
2022-10-28T15:45:26.807Z,23.94
2022-10-28T15:47:53.734Z,23.81
2022-10-28T15:50:20.501Z,23.68
2022-10-28T15:52:47.096Z,23.73
2022-10-28T15:55:13.726Z,23.63
2022-10-28T15:57:40.344Z,23.50
2022-10-28T16:00:06.946Z,23.35
2022-10-28T16:02:33.756Z,23.27
2022-10-28T16:05:00.531Z,23.12
2022-10-28T16:07:27.141Z,22.98
2022-10-28T16:09:53.759Z,22.78
2022-10-28T16:12:20.384Z,22.74
2022-10-28T16:14:46.974Z,22.73
2022-10-28T16:17:13.600Z,22.58
2022-10-28T16:19:40.222Z,22.41
2022-10-28T16:22:06.834Z,22.36
2022-10-28T16:24:33.481Z,22.29
2022-10-28T16:27:00.107Z,22.28
2022-10-28T16:29:26.773Z,22.25
2022-10-28T16:31:53.388Z,22.23
2022-10-28T16:34:20.202Z,22.11
2022-10-28T16:36:46.853Z,22.00
2022-10-28T16:39:13.475Z,21.90
2022-10-28T16:41:40.115Z,21.81
2022-10-28T16:46:38.227Z,21.67
2022-10-28T16:49:04.860Z,21.58
2022-10-28T16:51:31.483Z,21.54
2022-10-28T16:53:58.097Z,21.34
2022-10-28T16:56:24.686Z,21.32
2022-10-28T16:58:51.300Z,21.29
2022-10-28T17:01:17.936Z,21.24
2022-10-28T17:03:44.640Z,21.20
2022-10-28T17:06:11.226Z,21.14
2022-10-28T17:09:01.215Z,21.14
2022-10-28T17:11:24.525Z,21.03
2022-10-28T17:13:51.228Z,20.93
2022-10-28T17:16:17.842Z,20.84
2022-10-28T17:18:44.473Z,20.84
2022-10-28T17:21:11.127Z,20.80
2022-10-28T17:23:37.725Z,20.79
2022-10-28T17:26:04.336Z,20.72
2022-10-28T17:28:31.720Z,20.66
2022-10-28T17:30:58.374Z,20.61
2022-10-28T17:33:24.970Z,20.51
2022-10-28T17:35:51.650Z,20.46
2022-10-28T17:38:18.287Z,20.41
2022-10-28T17:40:44.918Z,20.38
2022-10-28T17:43:11.544Z,20.33
2022-10-28T17:45:38.139Z,20.18
2022-10-28T17:48:04.759Z,20.19
2022-10-28T17:50:31.384Z,20.07
2022-10-28T17:52:58.185Z,20.02
2022-10-28T17:55:24.982Z,19.86
2022-10-28T17:57:51.767Z,19.84
2022-10-28T18:00:18.508Z,19.82
2022-10-28T18:02:45.254Z,19.83
2022-10-28T18:05:12.055Z,19.84
2022-10-28T18:07:38.696Z,19.75
2022-10-28T18:10:05.301Z,19.74
2022-10-28T18:12:31.912Z,19.68
2022-10-28T18:14:58.524Z,19.70
2022-10-28T18:17:25.134Z,19.78
2022-10-28T18:19:51.732Z,19.64
2022-10-28T18:22:18.381Z,19.44
2022-10-28T18:24:45.081Z,19.40
2022-10-28T18:27:11.717Z,19.41
2022-10-28T18:29:38.301Z,19.47
2022-10-28T18:32:04.927Z,19.41
2022-10-28T18:34:31.659Z,19.48
2022-10-28T18:36:58.366Z,19.45
2022-10-28T18:39:24.997Z,19.41
2022-10-28T18:41:51.723Z,19.34
2022-10-28T18:44:18.383Z,19.26
2022-10-28T18:46:45.024Z,19.21
2022-10-28T18:49:11.617Z,19.16
2022-10-28T18:51:38.262Z,19.11
2022-10-28T18:54:04.898Z,19.11
2022-10-28T18:56:31.510Z,19.03
2022-10-28T18:58:58.151Z,19.03
2022-10-28T19:01:24.926Z,19.02
2022-10-28T19:03:51.631Z,19.04
2022-10-28T19:06:18.260Z,19.07
2022-10-28T19:08:44.902Z,19.03
2022-10-28T19:11:11.530Z,18.94
2022-10-28T19:13:38.205Z,18.82
2022-10-28T19:16:04.865Z,18.85
2022-10-28T19:18:31.561Z,18.74
2022-10-28T19:20:58.145Z,18.72
2022-10-28T19:23:24.785Z,18.69
2022-10-28T19:25:51.444Z,18.71
2022-10-28T19:28:18.053Z,18.45
2022-10-28T19:30:44.680Z,18.43
2022-10-28T19:33:11.322Z,18.36
2022-10-28T19:35:38.016Z,18.35
2022-10-28T19:38:04.660Z,18.23
2022-10-28T19:40:31.284Z,18.19
2022-10-28T19:42:57.938Z,18.22
2022-10-28T19:45:24.625Z,18.34
2022-10-28T19:47:51.265Z,18.34
2022-10-28T19:50:17.955Z,18.09
2022-10-28T19:52:44.565Z,18.02
2022-10-28T19:55:14.912Z,18.11
2022-10-28T19:57:41.840Z,18.13
2022-10-28T20:00:08.462Z,18.13
2022-10-28T20:02:35.274Z,18.14
2022-10-28T20:05:01.966Z,18.08
2022-10-28T20:07:28.568Z,18.08
2022-10-28T20:09:55.237Z,18.02
2022-10-28T20:12:21.896Z,18.00
2022-10-28T20:14:48.509Z,17.95
2022-10-28T20:17:15.227Z,17.82
2022-10-28T20:19:41.876Z,17.73
2022-10-28T20:22:08.480Z,17.72
2022-10-28T20:24:35.073Z,17.46
2022-10-28T20:27:01.697Z,17.56
2022-10-28T20:29:28.323Z,17.40
2022-10-28T20:31:54.970Z,17.65
2022-10-28T20:34:21.566Z,17.62
2022-10-28T20:36:48.205Z,17.71
2022-10-28T20:39:14.812Z,17.42
2022-10-28T20:41:41.403Z,17.32
2022-10-28T20:44:08.090Z,17.39
2022-10-28T20:46:34.753Z,17.27
2022-10-28T20:49:01.499Z,17.14
2022-10-28T20:51:28.639Z,17.00
2022-10-28T20:53:55.248Z,17.23
2022-10-28T20:56:21.908Z,17.12
2022-10-28T20:58:48.532Z,17.05
2022-10-28T21:01:15.292Z,17.04
2022-10-28T21:03:42.152Z,17.22
2022-10-28T21:06:08.864Z,17.26
2022-10-28T21:08:35.480Z,17.26
2022-10-28T21:11:02.106Z,17.17
2022-10-28T21:13:28.697Z,17.25
2022-10-28T21:15:57.645Z,17.16
2022-10-28T21:18:24.655Z,17.18
2022-10-28T21:20:51.275Z,17.26
2022-10-28T21:23:17.944Z,17.16
2022-10-28T21:25:44.550Z,17.09
2022-10-28T21:28:11.191Z,17.01
2022-10-28T21:30:37.866Z,17.09
2022-10-28T21:33:04.487Z,17.17
2022-10-28T21:35:31.127Z,17.16
2022-10-28T21:37:58.116Z,17.05
2022-10-28T21:40:24.990Z,16.80
2022-10-28T21:42:51.583Z,16.85
2022-10-28T21:45:18.207Z,16.87
2022-10-28T21:47:44.817Z,16.81
2022-10-28T21:50:11.462Z,16.85
2022-10-28T21:52:38.075Z,16.93
2022-10-28T21:55:14.577Z,16.84
2022-10-28T21:57:47.479Z,16.68
2022-10-28T22:00:14.076Z,16.78
2022-10-28T22:02:40.870Z,16.70
2022-10-28T22:05:07.568Z,16.66
2022-10-28T22:07:34.186Z,16.66
2022-10-28T22:10:00.802Z,16.65
2022-10-28T22:12:27.398Z,16.58
2022-10-28T22:14:54.034Z,16.58
2022-10-28T22:17:20.675Z,16.53
2022-10-28T22:19:47.302Z,16.39
2022-10-28T22:22:13.894Z,16.29
2022-10-28T22:24:40.518Z,16.35
2022-10-28T22:27:07.137Z,16.40
2022-10-28T22:29:33.793Z,16.42
2022-10-28T22:32:00.385Z,16.39
2022-10-28T22:34:27.013Z,16.26
2022-10-28T22:36:53.637Z,16.34
2022-10-28T22:39:20.226Z,16.33
2022-10-28T22:41:46.840Z,16.28
2022-10-28T22:44:13.459Z,16.32
2022-10-28T22:46:40.152Z,16.18
2022-10-28T22:49:06.882Z,16.19
2022-10-28T22:51:33.555Z,16.22
2022-10-28T22:54:00.146Z,16.24
2022-10-28T22:56:26.759Z,16.27
2022-10-28T22:58:53.362Z,16.25
2022-10-28T23:01:20.056Z,16.19
2022-10-28T23:03:46.793Z,16.21
2022-10-28T23:06:13.393Z,16.17
2022-10-28T23:08:40.008Z,16.16
2022-10-28T23:11:06.648Z,16.12
2022-10-28T23:13:33.341Z,16.13
2022-10-28T23:15:59.987Z,16.10
2022-10-28T23:18:26.578Z,16.05
2022-10-28T23:20:53.170Z,16.03
2022-10-28T23:23:19.837Z,16.05
2022-10-28T23:25:46.426Z,15.97
2022-10-28T23:28:13.059Z,15.77
2022-10-28T23:30:39.654Z,15.84
2022-10-28T23:33:06.287Z,15.82
2022-10-28T23:35:32.883Z,15.68
2022-10-28T23:37:59.495Z,15.73
2022-10-28T23:40:26.144Z,15.73
2022-10-28T23:42:52.952Z,15.88
2022-10-28T23:45:19.791Z,15.72
2022-10-28T23:47:46.387Z,15.65
2022-10-28T23:50:13.006Z,15.56
2022-10-28T23:52:39.587Z,15.62
2022-10-28T23:55:06.220Z,15.32
2022-10-28T23:57:32.817Z,15.55
2022-10-28T23:59:59.427Z,15.42
